sensor_id;sensor_type;location;lat;lon;timestamp;P1;durP1;ratioP1;P2;durP2;ratioP2
3589;SDS011;1809;48.470;9.226;2023-02-04T00:00:39;1.63;;;1.53;;
3589;SDS011;1809;48.470;9.226;2023-02-04T00:03:05;2.30;;;2.20;;
3589;SDS011;1809;48.470;9.226;2023-02-04T00:05:30;0.80;;;0.80;;
3589;SDS011;1809;48.470;9.226;2023-02-04T00:07:56;1.80;;;0.70;;
3589;SDS011;1809;48.470;9.226;2023-02-04T00:10:21;0.87;;;0.87;;
3589;SDS011;1809;48.470;9.226;2023-02-04T00:12:47;0.93;;;0.93;;
3589;SDS011;1809;48.470;9.226;2023-02-04T00:15:12;1.20;;;1.00;;
3589;SDS011;1809;48.470;9.226;2023-02-04T00:17:37;2.10;;;1.83;;
3589;SDS011;1809;48.470;9.226;2023-02-04T00:20:03;1.40;;;1.40;;
3589;SDS011;1809;48.470;9.226;2023-02-04T00:22:29;1.40;;;1.30;;
3589;SDS011;1809;48.470;9.226;2023-02-04T00:24:54;1.00;;;1.00;;
3589;SDS011;1809;48.470;9.226;2023-02-04T00:27:19;1.30;;;1.30;;
3589;SDS011;1809;48.470;9.226;2023-02-04T00:29:45;1.23;;;1.23;;
3589;SDS011;1809;48.470;9.226;2023-02-04T00:32:10;3.23;;;1.20;;
3589;SDS011;1809;48.470;9.226;2023-02-04T00:34:35;0.97;;;0.97;;
3589;SDS011;1809;48.470;9.226;2023-02-04T00:37:01;1.33;;;1.33;;
3589;SDS011;1809;48.470;9.226;2023-02-04T00:39:26;0.90;;;0.90;;
3589;SDS011;1809;48.470;9.226;2023-02-04T00:41:51;0.90;;;0.90;;
3589;SDS011;1809;48.470;9.226;2023-02-04T00:44:17;1.10;;;1.10;;
3589;SDS011;1809;48.470;9.226;2023-02-04T00:46:42;0.90;;;0.90;;
3589;SDS011;1809;48.470;9.226;2023-02-04T00:49:08;1.00;;;1.00;;
3589;SDS011;1809;48.470;9.226;2023-02-04T00:51:35;1.30;;;1.20;;
3589;SDS011;1809;48.470;9.226;2023-02-04T00:54:02;5.37;;;1.27;;
3589;SDS011;1809;48.470;9.226;2023-02-04T00:56:27;1.20;;;1.10;;
3589;SDS011;1809;48.470;9.226;2023-02-04T00:58:53;1.93;;;1.83;;
3589;SDS011;1809;48.470;9.226;2023-02-04T01:01:18;1.90;;;1.70;;
3589;SDS011;1809;48.470;9.226;2023-02-04T01:03:43;1.23;;;1.23;;
3589;SDS011;1809;48.470;9.226;2023-02-04T01:06:09;1.30;;;1.30;;
3589;SDS011;1809;48.470;9.226;2023-02-04T01:08:35;1.50;;;1.40;;
3589;SDS011;1809;48.470;9.226;2023-02-04T01:11:01;1.57;;;1.47;;
3589;SDS011;1809;48.470;9.226;2023-02-04T01:13:26;3.43;;;2.30;;
3589;SDS011;1809;48.470;9.226;2023-02-04T01:15:51;2.53;;;2.43;;
3589;SDS011;1809;48.470;9.226;2023-02-04T01:18:16;3.53;;;2.73;;
3589;SDS011;1809;48.470;9.226;2023-02-04T01:20:42;2.07;;;1.97;;
3589;SDS011;1809;48.470;9.226;2023-02-04T01:23:07;5.60;;;1.63;;
3589;SDS011;1809;48.470;9.226;2023-02-04T01:25:33;2.33;;;2.13;;
3589;SDS011;1809;48.470;9.226;2023-02-04T01:27:58;2.70;;;2.57;;
3589;SDS011;1809;48.470;9.226;2023-02-04T01:30:23;2.40;;;2.30;;
3589;SDS011;1809;48.470;9.226;2023-02-04T01:32:49;3.20;;;1.70;;
3589;SDS011;1809;48.470;9.226;2023-02-04T01:35:14;1.37;;;1.27;;
3589;SDS011;1809;48.470;9.226;2023-02-04T01:37:39;1.50;;;1.40;;
3589;SDS011;1809;48.470;9.226;2023-02-04T01:40:05;1.20;;;1.20;;
3589;SDS011;1809;48.470;9.226;2023-02-04T01:42:31;1.30;;;1.20;;
3589;SDS011;1809;48.470;9.226;2023-02-04T01:44:56;2.70;;;2.60;;
3589;SDS011;1809;48.470;9.226;2023-02-04T01:47:21;2.20;;;2.10;;
3589;SDS011;1809;48.470;9.226;2023-02-04T01:49:48;1.70;;;1.60;;
3589;SDS011;1809;48.470;9.226;2023-02-04T01:52:16;1.77;;;1.67;;
3589;SDS011;1809;48.470;9.226;2023-02-04T01:54:42;1.90;;;1.80;;
3589;SDS011;1809;48.470;9.226;2023-02-04T01:57:08;1.90;;;1.80;;
3589;SDS011;1809;48.470;9.226;2023-02-04T01:59:38;2.37;;;1.30;;
3589;SDS011;1809;48.470;9.226;2023-02-04T02:05:04;1.50;;;1.40;;
3589;SDS011;1809;48.470;9.226;2023-02-04T02:07:30;2.40;;;2.23;;
3589;SDS011;1809;48.470;9.226;2023-02-04T02:09:55;2.33;;;2.20;;
3589;SDS011;1809;48.470;9.226;2023-02-04T02:12:21;2.90;;;2.37;;
3589;SDS011;1809;48.470;9.226;2023-02-04T02:14:46;2.10;;;2.00;;
3589;SDS011;1809;48.470;9.226;2023-02-04T02:17:11;2.00;;;1.90;;
3589;SDS011;1809;48.470;9.226;2023-02-04T02:19:37;2.13;;;1.87;;
3589;SDS011;1809;48.470;9.226;2023-02-04T02:22:17;1.93;;;1.83;;
3589;SDS011;1809;48.470;9.226;2023-02-04T02:24:48;1.80;;;1.70;;
3589;SDS011;1809;48.470;9.226;2023-02-04T02:27:14;2.77;;;2.67;;
3589;SDS011;1809;48.470;9.226;2023-02-04T02:29:39;2.57;;;2.37;;
3589;SDS011;1809;48.470;9.226;2023-02-04T02:32:07;2.90;;;2.80;;
3589;SDS011;1809;48.470;9.226;2023-02-04T02:34:33;2.97;;;2.30;;
3589;SDS011;1809;48.470;9.226;2023-02-04T02:36:59;2.60;;;2.40;;
3589;SDS011;1809;48.470;9.226;2023-02-04T02:39:26;2.83;;;2.67;;
3589;SDS011;1809;48.470;9.226;2023-02-04T02:41:52;2.30;;;2.20;;
3589;SDS011;1809;48.470;9.226;2023-02-04T02:44:19;2.97;;;1.90;;
3589;SDS011;1809;48.470;9.226;2023-02-04T02:46:44;1.97;;;1.87;;
3589;SDS011;1809;48.470;9.226;2023-02-04T02:49:12;3.07;;;2.60;;
3589;SDS011;1809;48.470;9.226;2023-02-04T02:51:40;2.30;;;2.20;;
3589;SDS011;1809;48.470;9.226;2023-02-04T02:54:07;3.30;;;2.33;;
3589;SDS011;1809;48.470;9.226;2023-02-04T02:56:50;3.83;;;2.30;;
3589;SDS011;1809;48.470;9.226;2023-02-04T02:59:17;1.83;;;1.73;;
3589;SDS011;1809;48.470;9.226;2023-02-04T03:01:44;1.77;;;1.67;;
3589;SDS011;1809;48.470;9.226;2023-02-04T03:04:12;1.20;;;1.10;;
3589;SDS011;1809;48.470;9.226;2023-02-04T03:06:38;2.83;;;1.20;;
3589;SDS011;1809;48.470;9.226;2023-02-04T03:09:03;2.70;;;1.10;;
3589;SDS011;1809;48.470;9.226;2023-02-04T03:11:29;5.10;;;1.40;;
3589;SDS011;1809;48.470;9.226;2023-02-04T03:13:56;3.27;;;1.17;;
3589;SDS011;1809;48.470;9.226;2023-02-04T03:16:24;1.40;;;1.30;;
3589;SDS011;1809;48.470;9.226;2023-02-04T03:18:50;3.03;;;1.37;;
3589;SDS011;1809;48.470;9.226;2023-02-04T03:21:16;2.20;;;1.40;;
3589;SDS011;1809;48.470;9.226;2023-02-04T03:23:41;3.00;;;1.90;;
3589;SDS011;1809;48.470;9.226;2023-02-04T03:26:06;2.50;;;1.30;;
3589;SDS011;1809;48.470;9.226;2023-02-04T03:28:32;1.90;;;1.20;;
3589;SDS011;1809;48.470;9.226;2023-02-04T03:30:58;3.70;;;1.27;;
3589;SDS011;1809;48.470;9.226;2023-02-04T03:33:25;1.53;;;1.17;;
3589;SDS011;1809;48.470;9.226;2023-02-04T03:35:55;1.10;;;1.10;;
3589;SDS011;1809;48.470;9.226;2023-02-04T03:38:21;1.00;;;1.00;;
3589;SDS011;1809;48.470;9.226;2023-02-04T03:40:46;4.77;;;0.80;;
3589;SDS011;1809;48.470;9.226;2023-02-04T03:43:12;7.40;;;1.03;;
3589;SDS011;1809;48.470;9.226;2023-02-04T03:45:37;4.83;;;1.13;;
3589;SDS011;1809;48.470;9.226;2023-02-04T03:48:02;9.77;;;1.00;;
3589;SDS011;1809;48.470;9.226;2023-02-04T03:50:28;0.97;;;0.80;;
3589;SDS011;1809;48.470;9.226;2023-02-04T03:52:53;2.30;;;1.07;;
3589;SDS011;1809;48.470;9.226;2023-02-04T03:55:19;16.97;;;3.50;;
3589;SDS011;1809;48.470;9.226;2023-02-04T03:57:44;0.90;;;0.80;;
3589;SDS011;1809;48.470;9.226;2023-02-04T04:00:10;8.20;;;1.30;;
3589;SDS011;1809;48.470;9.226;2023-02-04T04:02:36;1.73;;;1.10;;
3589;SDS011;1809;48.470;9.226;2023-02-04T04:05:01;1.20;;;1.10;;
3589;SDS011;1809;48.470;9.226;2023-02-04T04:07:27;2.27;;;1.63;;
3589;SDS011;1809;48.470;9.226;2023-02-04T04:09:52;2.30;;;1.73;;
3589;SDS011;1809;48.470;9.226;2023-02-04T04:12:17;5.33;;;1.10;;
3589;SDS011;1809;48.470;9.226;2023-02-04T04:14:43;2.90;;;0.97;;
3589;SDS011;1809;48.470;9.226;2023-02-04T04:17:08;3.33;;;1.00;;
3589;SDS011;1809;48.470;9.226;2023-02-04T04:19:33;1.30;;;1.07;;
3589;SDS011;1809;48.470;9.226;2023-02-04T04:21:59;3.00;;;0.90;;
3589;SDS011;1809;48.470;9.226;2023-02-04T04:24:24;2.53;;;1.33;;
3589;SDS011;1809;48.470;9.226;2023-02-04T04:26:50;1.07;;;0.90;;
3589;SDS011;1809;48.470;9.226;2023-02-04T04:29:15;1.67;;;1.40;;
3589;SDS011;1809;48.470;9.226;2023-02-04T04:31:40;5.00;;;1.30;;
3589;SDS011;1809;48.470;9.226;2023-02-04T04:34:06;3.73;;;1.30;;
3589;SDS011;1809;48.470;9.226;2023-02-04T04:36:31;1.47;;;1.27;;
3589;SDS011;1809;48.470;9.226;2023-02-04T04:38:56;3.87;;;1.90;;
3589;SDS011;1809;48.470;9.226;2023-02-04T04:41:22;3.57;;;1.50;;
3589;SDS011;1809;48.470;9.226;2023-02-04T04:43:47;3.83;;;1.30;;
3589;SDS011;1809;48.470;9.226;2023-02-04T04:46:12;2.20;;;1.97;;
3589;SDS011;1809;48.470;9.226;2023-02-04T04:48:38;3.30;;;1.80;;
3589;SDS011;1809;48.470;9.226;2023-02-04T04:51:03;2.50;;;1.50;;
3589;SDS011;1809;48.470;9.226;2023-02-04T04:53:28;4.37;;;2.13;;
3589;SDS011;1809;48.470;9.226;2023-02-04T04:55:54;2.40;;;1.87;;
3589;SDS011;1809;48.470;9.226;2023-02-04T04:58:19;3.13;;;1.97;;
3589;SDS011;1809;48.470;9.226;2023-02-04T05:00:45;8.30;;;1.90;;
3589;SDS011;1809;48.470;9.226;2023-02-04T05:03:10;3.33;;;1.60;;
3589;SDS011;1809;48.470;9.226;2023-02-04T05:05:35;2.90;;;1.50;;
3589;SDS011;1809;48.470;9.226;2023-02-04T05:08:04;5.10;;;2.23;;
3589;SDS011;1809;48.470;9.226;2023-02-04T05:10:31;2.30;;;1.43;;
3589;SDS011;1809;48.470;9.226;2023-02-04T05:12:56;2.03;;;1.83;;
3589;SDS011;1809;48.470;9.226;2023-02-04T05:15:22;8.90;;;3.13;;
3589;SDS011;1809;48.470;9.226;2023-02-04T05:17:47;3.60;;;2.87;;
3589;SDS011;1809;48.470;9.226;2023-02-04T05:20:13;3.73;;;2.73;;
3589;SDS011;1809;48.470;9.226;2023-02-04T05:22:38;4.23;;;2.87;;
3589;SDS011;1809;48.470;9.226;2023-02-04T05:25:04;3.53;;;2.10;;
3589;SDS011;1809;48.470;9.226;2023-02-04T05:27:29;2.30;;;2.20;;
3589;SDS011;1809;48.470;9.226;2023-02-04T05:29:55;6.20;;;2.13;;
3589;SDS011;1809;48.470;9.226;2023-02-04T05:32:20;6.27;;;2.40;;
3589;SDS011;1809;48.470;9.226;2023-02-04T05:34:45;6.00;;;2.30;;
3589;SDS011;1809;48.470;9.226;2023-02-04T05:37:10;5.33;;;1.73;;
3589;SDS011;1809;48.470;9.226;2023-02-04T05:39:36;4.10;;;2.00;;
3589;SDS011;1809;48.470;9.226;2023-02-04T05:42:01;3.80;;;2.00;;
3589;SDS011;1809;48.470;9.226;2023-02-04T05:44:27;2.00;;;1.90;;
3589;SDS011;1809;48.470;9.226;2023-02-04T05:46:52;6.83;;;2.20;;
3589;SDS011;1809;48.470;9.226;2023-02-04T05:49:17;3.00;;;2.07;;
3589;SDS011;1809;48.470;9.226;2023-02-04T05:51:42;2.20;;;1.97;;
3589;SDS011;1809;48.470;9.226;2023-02-04T05:54:08;3.10;;;2.50;;
3589;SDS011;1809;48.470;9.226;2023-02-04T05:56:33;8.90;;;2.30;;
3589;SDS011;1809;48.470;9.226;2023-02-04T05:58:58;6.40;;;2.03;;
3589;SDS011;1809;48.470;9.226;2023-02-04T06:01:24;3.10;;;1.77;;
3589;SDS011;1809;48.470;9.226;2023-02-04T06:03:49;1.80;;;1.70;;
3589;SDS011;1809;48.470;9.226;2023-02-04T06:06:14;1.93;;;1.83;;
3589;SDS011;1809;48.470;9.226;2023-02-04T06:08:39;3.47;;;2.33;;
3589;SDS011;1809;48.470;9.226;2023-02-04T06:11:05;2.60;;;2.07;;
3589;SDS011;1809;48.470;9.226;2023-02-04T06:13:30;4.20;;;2.00;;
3589;SDS011;1809;48.470;9.226;2023-02-04T06:15:55;5.50;;;2.93;;
3589;SDS011;1809;48.470;9.226;2023-02-04T06:18:21;4.63;;;3.40;;
3589;SDS011;1809;48.470;9.226;2023-02-04T06:20:46;5.80;;;2.30;;
3589;SDS011;1809;48.470;9.226;2023-02-04T06:23:11;5.47;;;2.97;;
3589;SDS011;1809;48.470;9.226;2023-02-04T06:25:37;4.67;;;2.87;;
3589;SDS011;1809;48.470;9.226;2023-02-04T06:28:02;2.40;;;2.10;;
3589;SDS011;1809;48.470;9.226;2023-02-04T06:30:28;2.87;;;2.63;;
3589;SDS011;1809;48.470;9.226;2023-02-04T06:32:53;2.73;;;2.53;;
3589;SDS011;1809;48.470;9.226;2023-02-04T06:35:18;3.73;;;2.60;;
3589;SDS011;1809;48.470;9.226;2023-02-04T06:37:44;6.27;;;5.00;;
3589;SDS011;1809;48.470;9.226;2023-02-04T06:40:10;3.83;;;3.50;;
3589;SDS011;1809;48.470;9.226;2023-02-04T06:42:35;7.70;;;3.80;;
3589;SDS011;1809;48.470;9.226;2023-02-04T06:45:01;4.57;;;3.80;;
3589;SDS011;1809;48.470;9.226;2023-02-04T06:47:27;5.60;;;3.17;;
3589;SDS011;1809;48.470;9.226;2023-02-04T06:49:52;8.10;;;3.50;;
3589;SDS011;1809;48.470;9.226;2023-02-04T06:52:17;6.10;;;4.30;;
3589;SDS011;1809;48.470;9.226;2023-02-04T06:54:43;8.33;;;6.23;;
3589;SDS011;1809;48.470;9.226;2023-02-04T06:57:08;8.70;;;7.57;;
3589;SDS011;1809;48.470;9.226;2023-02-04T06:59:34;12.40;;;8.00;;
3589;SDS011;1809;48.470;9.226;2023-02-04T07:02:00;12.53;;;7.77;;
3589;SDS011;1809;48.470;9.226;2023-02-04T07:04:26;7.23;;;5.90;;
3589;SDS011;1809;48.470;9.226;2023-02-04T07:06:52;8.00;;;6.10;;
3589;SDS011;1809;48.470;9.226;2023-02-04T07:09:17;7.67;;;5.07;;
3589;SDS011;1809;48.470;9.226;2023-02-04T07:11:43;6.50;;;4.17;;
3589;SDS011;1809;48.470;9.226;2023-02-04T07:14:08;14.33;;;6.10;;
3589;SDS011;1809;48.470;9.226;2023-02-04T07:16:34;13.53;;;4.97;;
3589;SDS011;1809;48.470;9.226;2023-02-04T07:19:00;12.07;;;5.03;;
3589;SDS011;1809;48.470;9.226;2023-02-04T07:21:25;14.60;;;7.30;;
3589;SDS011;1809;48.470;9.226;2023-02-04T07:23:51;27.07;;;8.20;;
3589;SDS011;1809;48.470;9.226;2023-02-04T07:26:16;13.97;;;7.93;;
3589;SDS011;1809;48.470;9.226;2023-02-04T07:28:42;10.60;;;6.47;;
3589;SDS011;1809;48.470;9.226;2023-02-04T07:31:07;15.83;;;10.57;;
3589;SDS011;1809;48.470;9.226;2023-02-04T07:33:32;9.53;;;8.23;;
3589;SDS011;1809;48.470;9.226;2023-02-04T07:35:58;21.90;;;8.40;;
3589;SDS011;1809;48.470;9.226;2023-02-04T07:38:23;18.10;;;8.17;;
3589;SDS011;1809;48.470;9.226;2023-02-04T07:40:49;14.80;;;6.00;;
3589;SDS011;1809;48.470;9.226;2023-02-04T07:43:14;17.87;;;6.50;;
3589;SDS011;1809;48.470;9.226;2023-02-04T07:45:39;18.23;;;7.50;;
3589;SDS011;1809;48.470;9.226;2023-02-04T07:48:05;18.73;;;8.47;;
3589;SDS011;1809;48.470;9.226;2023-02-04T07:50:30;9.37;;;7.80;;
3589;SDS011;1809;48.470;9.226;2023-02-04T07:52:55;19.87;;;7.87;;
3589;SDS011;1809;48.470;9.226;2023-02-04T07:55:21;27.03;;;9.07;;
3589;SDS011;1809;48.470;9.226;2023-02-04T07:57:46;20.70;;;11.40;;
3589;SDS011;1809;48.470;9.226;2023-02-04T08:00:11;23.87;;;13.63;;
3589;SDS011;1809;48.470;9.226;2023-02-04T08:02:38;23.00;;;13.83;;
3589;SDS011;1809;48.470;9.226;2023-02-04T08:05:05;14.57;;;10.30;;
3589;SDS011;1809;48.470;9.226;2023-02-04T08:07:31;21.00;;;10.00;;
3589;SDS011;1809;48.470;9.226;2023-02-04T08:09:57;21.50;;;11.30;;
3589;SDS011;1809;48.470;9.226;2023-02-04T08:12:22;18.10;;;7.37;;
3589;SDS011;1809;48.470;9.226;2023-02-04T08:14:47;21.77;;;13.20;;
3589;SDS011;1809;48.470;9.226;2023-02-04T08:17:13;33.10;;;14.40;;
3589;SDS011;1809;48.470;9.226;2023-02-04T08:19:38;23.40;;;12.37;;
3589;SDS011;1809;48.470;9.226;2023-02-04T08:22:03;22.83;;;12.57;;
3589;SDS011;1809;48.470;9.226;2023-02-04T08:24:28;22.03;;;9.73;;
3589;SDS011;1809;48.470;9.226;2023-02-04T08:26:54;17.03;;;9.47;;
3589;SDS011;1809;48.470;9.226;2023-02-04T08:29:19;17.10;;;7.80;;
3589;SDS011;1809;48.470;9.226;2023-02-04T08:31:44;18.63;;;7.30;;
3589;SDS011;1809;48.470;9.226;2023-02-04T08:34:11;24.73;;;7.30;;
3589;SDS011;1809;48.470;9.226;2023-02-04T08:36:37;19.17;;;9.10;;
3589;SDS011;1809;48.470;9.226;2023-02-04T08:39:02;27.63;;;9.90;;
3589;SDS011;1809;48.470;9.226;2023-02-04T08:41:28;22.97;;;8.87;;
3589;SDS011;1809;48.470;9.226;2023-02-04T08:43:53;28.53;;;7.60;;
3589;SDS011;1809;48.470;9.226;2023-02-04T08:46:19;19.37;;;8.43;;
3589;SDS011;1809;48.470;9.226;2023-02-04T08:48:44;19.60;;;7.70;;
3589;SDS011;1809;48.470;9.226;2023-02-04T08:51:09;26.47;;;9.00;;
3589;SDS011;1809;48.470;9.226;2023-02-04T08:53:35;23.43;;;8.90;;
3589;SDS011;1809;48.470;9.226;2023-02-04T08:56:01;25.20;;;8.27;;
3589;SDS011;1809;48.470;9.226;2023-02-04T08:58:27;13.87;;;9.63;;
3589;SDS011;1809;48.470;9.226;2023-02-04T09:00:52;17.50;;;8.50;;
3589;SDS011;1809;48.470;9.226;2023-02-04T09:03:17;15.23;;;9.03;;
3589;SDS011;1809;48.470;9.226;2023-02-04T09:05:43;22.43;;;7.63;;
3589;SDS011;1809;48.470;9.226;2023-02-04T09:08:08;13.47;;;8.00;;
3589;SDS011;1809;48.470;9.226;2023-02-04T09:10:33;20.47;;;8.60;;
3589;SDS011;1809;48.470;9.226;2023-02-04T09:12:59;11.87;;;7.37;;
3589;SDS011;1809;48.470;9.226;2023-02-04T09:15:25;19.37;;;7.73;;
3589;SDS011;1809;48.470;9.226;2023-02-04T09:17:52;33.57;;;11.47;;
3589;SDS011;1809;48.470;9.226;2023-02-04T09:20:19;31.00;;;7.77;;
3589;SDS011;1809;48.470;9.226;2023-02-04T09:22:48;27.63;;;7.40;;
3589;SDS011;1809;48.470;9.226;2023-02-04T09:25:14;19.93;;;9.00;;
3589;SDS011;1809;48.470;9.226;2023-02-04T09:27:39;17.13;;;7.20;;
3589;SDS011;1809;48.470;9.226;2023-02-04T09:30:05;15.60;;;7.87;;
3589;SDS011;1809;48.470;9.226;2023-02-04T09:32:30;27.47;;;10.60;;
3589;SDS011;1809;48.470;9.226;2023-02-04T09:34:56;17.03;;;7.90;;
3589;SDS011;1809;48.470;9.226;2023-02-04T09:37:21;22.13;;;10.40;;
3589;SDS011;1809;48.470;9.226;2023-02-04T09:39:50;21.30;;;7.40;;
3589;SDS011;1809;48.470;9.226;2023-02-04T09:42:16;18.93;;;7.23;;
3589;SDS011;1809;48.470;9.226;2023-02-04T09:44:50;27.50;;;8.80;;
3589;SDS011;1809;48.470;9.226;2023-02-04T09:47:16;22.50;;;9.30;;
3589;SDS011;1809;48.470;9.226;2023-02-04T09:49:49;28.33;;;11.13;;
3589;SDS011;1809;48.470;9.226;2023-02-04T09:52:17;27.73;;;7.97;;
3589;SDS011;1809;48.470;9.226;2023-02-04T09:54:47;31.97;;;9.20;;
3589;SDS011;1809;48.470;9.226;2023-02-04T09:57:14;21.37;;;10.13;;
3589;SDS011;1809;48.470;9.226;2023-02-04T09:59:43;24.17;;;8.07;;
3589;SDS011;1809;48.470;9.226;2023-02-04T10:02:24;21.73;;;8.40;;
3589;SDS011;1809;48.470;9.226;2023-02-04T10:04:54;17.77;;;7.60;;
3589;SDS011;1809;48.470;9.226;2023-02-04T10:07:21;31.93;;;9.03;;
3589;SDS011;1809;48.470;9.226;2023-02-04T10:09:49;24.97;;;9.20;;
3589;SDS011;1809;48.470;9.226;2023-02-04T10:12:16;16.47;;;8.13;;
3589;SDS011;1809;48.470;9.226;2023-02-04T10:14:45;20.80;;;7.17;;
3589;SDS011;1809;48.470;9.226;2023-02-04T10:17:14;13.87;;;5.97;;
3589;SDS011;1809;48.470;9.226;2023-02-04T10:19:44;12.90;;;5.73;;
3589;SDS011;1809;48.470;9.226;2023-02-04T10:22:12;23.97;;;6.90;;
3589;SDS011;1809;48.470;9.226;2023-02-04T10:24:41;23.83;;;6.17;;
3589;SDS011;1809;48.470;9.226;2023-02-04T10:27:07;16.00;;;5.80;;
3589;SDS011;1809;48.470;9.226;2023-02-04T10:29:34;20.07;;;5.77;;
3589;SDS011;1809;48.470;9.226;2023-02-04T10:31:59;13.83;;;5.03;;
3589;SDS011;1809;48.470;9.226;2023-02-04T10:34:36;16.90;;;5.20;;
3589;SDS011;1809;48.470;9.226;2023-02-04T10:37:19;26.60;;;5.93;;
3589;SDS011;1809;48.470;9.226;2023-02-04T10:39:46;18.90;;;5.53;;
3589;SDS011;1809;48.470;9.226;2023-02-04T10:42:20;16.57;;;4.87;;
3589;SDS011;1809;48.470;9.226;2023-02-04T10:44:50;13.13;;;3.53;;
3589;SDS011;1809;48.470;9.226;2023-02-04T10:47:17;13.63;;;4.53;;
3589;SDS011;1809;48.470;9.226;2023-02-04T10:49:54;10.13;;;3.90;;
3589;SDS011;1809;48.470;9.226;2023-02-04T10:52:23;18.00;;;4.77;;
3589;SDS011;1809;48.470;9.226;2023-02-04T10:55:03;14.33;;;4.90;;
3589;SDS011;1809;48.470;9.226;2023-02-04T10:57:32;12.53;;;5.07;;
3589;SDS011;1809;48.470;9.226;2023-02-04T11:00:03;17.87;;;4.87;;
3589;SDS011;1809;48.470;9.226;2023-02-04T11:02:32;18.33;;;4.93;;
3589;SDS011;1809;48.470;9.226;2023-02-04T11:05:18;18.17;;;4.30;;
3589;SDS011;1809;48.470;9.226;2023-02-04T11:07:49;17.90;;;4.67;;
3589;SDS011;1809;48.470;9.226;2023-02-04T11:10:16;21.37;;;4.60;;
3589;SDS011;1809;48.470;9.226;2023-02-04T11:12:45;20.90;;;4.73;;
3589;SDS011;1809;48.470;9.226;2023-02-04T11:15:39;19.00;;;4.80;;
3589;SDS011;1809;48.470;9.226;2023-02-04T11:20:44;13.10;;;4.60;;
3589;SDS011;1809;48.470;9.226;2023-02-04T11:31:11;11.20;;;4.13;;
3589;SDS011;1809;48.470;9.226;2023-02-04T11:39:41;11.87;;;3.97;;
3589;SDS011;1809;48.470;9.226;2023-02-04T11:42:22;17.50;;;3.90;;
3589;SDS011;1809;48.470;9.226;2023-02-04T11:45:13;25.77;;;4.33;;
3589;SDS011;1809;48.470;9.226;2023-02-04T11:47:42;14.60;;;4.67;;
3589;SDS011;1809;48.470;9.226;2023-02-04T11:53:01;15.23;;;4.63;;
3589;SDS011;1809;48.470;9.226;2023-02-04T11:55:27;22.80;;;4.30;;
3589;SDS011;1809;48.470;9.226;2023-02-04T11:57:54;17.80;;;5.13;;
3589;SDS011;1809;48.470;9.226;2023-02-04T12:00:23;12.53;;;3.87;;
3589;SDS011;1809;48.470;9.226;2023-02-04T12:02:54;13.37;;;4.53;;
3589;SDS011;1809;48.470;9.226;2023-02-04T12:05:21;13.43;;;3.70;;
3589;SDS011;1809;48.470;9.226;2023-02-04T12:08:07;11.63;;;3.33;;
3589;SDS011;1809;48.470;9.226;2023-02-04T12:10:35;8.03;;;3.57;;
3589;SDS011;1809;48.470;9.226;2023-02-04T12:13:00;16.77;;;3.17;;
3589;SDS011;1809;48.470;9.226;2023-02-04T12:15:37;6.00;;;2.70;;
3589;SDS011;1809;48.470;9.226;2023-02-04T12:18:06;27.33;;;4.07;;
3589;SDS011;1809;48.470;9.226;2023-02-04T12:20:33;16.10;;;2.80;;
3589;SDS011;1809;48.470;9.226;2023-02-04T12:22:59;16.80;;;3.10;;
3589;SDS011;1809;48.470;9.226;2023-02-04T12:25:25;12.17;;;2.20;;
3589;SDS011;1809;48.470;9.226;2023-02-04T12:27:53;23.20;;;4.20;;
3589;SDS011;1809;48.470;9.226;2023-02-04T12:30:20;9.00;;;2.80;;
3589;SDS011;1809;48.470;9.226;2023-02-04T12:32:46;10.57;;;3.50;;
3589;SDS011;1809;48.470;9.226;2023-02-04T12:35:11;10.90;;;2.90;;
3589;SDS011;1809;48.470;9.226;2023-02-04T12:37:37;12.03;;;2.90;;
3589;SDS011;1809;48.470;9.226;2023-02-04T12:40:02;12.77;;;2.90;;
3589;SDS011;1809;48.470;9.226;2023-02-04T12:42:28;10.63;;;2.70;;
3589;SDS011;1809;48.470;9.226;2023-02-04T12:44:53;15.83;;;4.00;;
3589;SDS011;1809;48.470;9.226;2023-02-04T12:47:19;13.53;;;2.80;;
3589;SDS011;1809;48.470;9.226;2023-02-04T12:49:44;4.20;;;2.40;;
3589;SDS011;1809;48.470;9.226;2023-02-04T12:52:10;4.97;;;2.10;;
3589;SDS011;1809;48.470;9.226;2023-02-04T12:54:35;9.17;;;2.43;;
3589;SDS011;1809;48.470;9.226;2023-02-04T12:57:01;13.93;;;3.50;;
3589;SDS011;1809;48.470;9.226;2023-02-04T12:59:29;7.97;;;2.50;;
3589;SDS011;1809;48.470;9.226;2023-02-04T13:01:58;13.33;;;2.70;;
3589;SDS011;1809;48.470;9.226;2023-02-04T13:04:23;14.60;;;2.30;;
3589;SDS011;1809;48.470;9.226;2023-02-04T13:06:48;9.60;;;2.87;;
3589;SDS011;1809;48.470;9.226;2023-02-04T13:09:14;12.97;;;3.03;;
3589;SDS011;1809;48.470;9.226;2023-02-04T13:11:39;6.93;;;2.70;;
3589;SDS011;1809;48.470;9.226;2023-02-04T13:14:04;9.50;;;2.23;;
3589;SDS011;1809;48.470;9.226;2023-02-04T13:16:30;17.73;;;3.03;;
3589;SDS011;1809;48.470;9.226;2023-02-04T13:18:55;12.40;;;3.10;;
3589;SDS011;1809;48.470;9.226;2023-02-04T13:21:20;13.73;;;3.03;;
3589;SDS011;1809;48.470;9.226;2023-02-04T13:23:46;5.50;;;2.33;;
3589;SDS011;1809;48.470;9.226;2023-02-04T13:26:11;8.97;;;2.47;;
3589;SDS011;1809;48.470;9.226;2023-02-04T13:28:36;5.97;;;2.70;;
3589;SDS011;1809;48.470;9.226;2023-02-04T13:31:02;12.33;;;2.53;;
3589;SDS011;1809;48.470;9.226;2023-02-04T13:33:30;3.30;;;2.37;;
3589;SDS011;1809;48.470;9.226;2023-02-04T13:35:55;7.73;;;2.80;;
3589;SDS011;1809;48.470;9.226;2023-02-04T13:38:21;8.63;;;3.13;;
3589;SDS011;1809;48.470;9.226;2023-02-04T13:40:47;8.30;;;4.23;;
3589;SDS011;1809;48.470;9.226;2023-02-04T13:43:12;11.03;;;2.83;;
3589;SDS011;1809;48.470;9.226;2023-02-04T13:45:37;16.97;;;2.70;;
3589;SDS011;1809;48.470;9.226;2023-02-04T13:48:11;10.10;;;3.03;;
3589;SDS011;1809;48.470;9.226;2023-02-04T13:50:39;9.30;;;2.47;;
3589;SDS011;1809;48.470;9.226;2023-02-04T13:53:05;11.73;;;3.17;;
3589;SDS011;1809;48.470;9.226;2023-02-04T13:55:30;8.97;;;3.20;;
3589;SDS011;1809;48.470;9.226;2023-02-04T13:57:55;16.43;;;3.90;;
3589;SDS011;1809;48.470;9.226;2023-02-04T14:00:21;20.77;;;3.73;;
3589;SDS011;1809;48.470;9.226;2023-02-04T14:02:46;19.73;;;6.00;;
3589;SDS011;1809;48.470;9.226;2023-02-04T14:05:12;15.03;;;4.43;;
3589;SDS011;1809;48.470;9.226;2023-02-04T14:07:38;22.80;;;11.83;;
3589;SDS011;1809;48.470;9.226;2023-02-04T14:10:04;21.80;;;6.73;;
3589;SDS011;1809;48.470;9.226;2023-02-04T14:12:29;11.23;;;4.87;;
3589;SDS011;1809;48.470;9.226;2023-02-04T14:14:54;20.57;;;6.43;;
3589;SDS011;1809;48.470;9.226;2023-02-04T14:17:22;35.47;;;9.73;;
3589;SDS011;1809;48.470;9.226;2023-02-04T14:19:48;15.73;;;5.23;;
3589;SDS011;1809;48.470;9.226;2023-02-04T14:22:13;22.37;;;6.53;;
3589;SDS011;1809;48.470;9.226;2023-02-04T14:24:41;15.13;;;4.40;;
3589;SDS011;1809;48.470;9.226;2023-02-04T14:27:08;18.63;;;4.10;;
3589;SDS011;1809;48.470;9.226;2023-02-04T14:29:34;40.03;;;8.23;;
3589;SDS011;1809;48.470;9.226;2023-02-04T14:32:00;15.90;;;3.90;;
3589;SDS011;1809;48.470;9.226;2023-02-04T14:34:25;17.63;;;4.40;;
3589;SDS011;1809;48.470;9.226;2023-02-04T14:36:51;16.27;;;4.23;;
3589;SDS011;1809;48.470;9.226;2023-02-04T14:39:16;13.73;;;4.30;;
3589;SDS011;1809;48.470;9.226;2023-02-04T14:41:42;8.60;;;4.80;;
3589;SDS011;1809;48.470;9.226;2023-02-04T14:44:08;18.37;;;5.30;;
3589;SDS011;1809;48.470;9.226;2023-02-04T14:46:33;10.60;;;4.03;;
3589;SDS011;1809;48.470;9.226;2023-02-04T14:48:58;7.80;;;3.03;;
3589;SDS011;1809;48.470;9.226;2023-02-04T14:51:23;9.43;;;2.17;;
3589;SDS011;1809;48.470;9.226;2023-02-04T14:53:49;14.03;;;2.90;;
3589;SDS011;1809;48.470;9.226;2023-02-04T14:56:14;12.17;;;3.23;;
3589;SDS011;1809;48.470;9.226;2023-02-04T14:58:40;6.97;;;3.00;;
3589;SDS011;1809;48.470;9.226;2023-02-04T15:01:05;9.37;;;2.53;;
3589;SDS011;1809;48.470;9.226;2023-02-04T15:03:31;10.77;;;2.50;;
3589;SDS011;1809;48.470;9.226;2023-02-04T15:05:56;17.07;;;3.07;;
3589;SDS011;1809;48.470;9.226;2023-02-04T15:08:21;6.17;;;2.43;;
3589;SDS011;1809;48.470;9.226;2023-02-04T15:10:47;3.37;;;1.90;;
3589;SDS011;1809;48.470;9.226;2023-02-04T15:13:12;9.43;;;3.23;;
3589;SDS011;1809;48.470;9.226;2023-02-04T15:15:37;12.67;;;3.10;;
3589;SDS011;1809;48.470;9.226;2023-02-04T15:18:06;15.97;;;5.80;;
3589;SDS011;1809;48.470;9.226;2023-02-04T15:20:31;11.57;;;2.93;;
3589;SDS011;1809;48.470;9.226;2023-02-04T15:22:56;6.60;;;3.00;;
3589;SDS011;1809;48.470;9.226;2023-02-04T15:25:22;13.10;;;6.20;;